createdAt,value
2022-08-08T00:02:04.007Z,11.70
2022-08-08T00:04:31.585Z,12.20
2022-08-08T00:07:13.204Z,12.20
2022-08-08T00:09:52.305Z,12.13
2022-08-08T00:12:26.367Z,11.93
2022-08-08T00:15:05.524Z,12.13
2022-08-08T00:17:48.227Z,12.33
2022-08-08T00:20:36.919Z,11.93
2022-08-08T00:23:09.749Z,11.97
2022-08-08T00:25:46.166Z,12.07
2022-08-08T00:28:35.497Z,12.17
2022-08-08T00:32:28.815Z,12.47
2022-08-08T00:34:35.801Z,12.20
2022-08-08T00:37:44.787Z,11.87
2022-08-08T00:41:10.274Z,12.17
2022-08-08T00:43:45.907Z,11.93
2022-08-08T00:46:16.558Z,12.07
2022-08-08T00:49:00.969Z,12.53
2022-08-08T00:51:52.531Z,12.33
2022-08-08T00:54:49.584Z,12.47
2022-08-08T00:57:58.079Z,12.37
2022-08-08T01:00:37.719Z,13.00
2022-08-08T01:03:58.790Z,12.30
2022-08-08T01:06:50.178Z,12.80
2022-08-08T01:09:49.022Z,12.63
2022-08-08T01:12:47.719Z,12.63
2022-08-08T01:15:43.470Z,12.20
2022-08-08T01:18:53.843Z,12.20
2022-08-08T01:22:03.744Z,12.50
2022-08-08T01:24:40.075Z,12.50
2022-08-08T01:27:33.129Z,12.37
2022-08-08T01:30:26.540Z,12.90
2022-08-08T01:33:27.544Z,12.70
2022-08-08T01:36:18.240Z,12.73
2022-08-08T01:38:53.105Z,12.57
2022-08-08T01:41:39.277Z,13.03
2022-08-08T01:44:26.511Z,12.33
2022-08-08T01:47:58.988Z,12.30
2022-08-08T01:50:36.043Z,12.27
2022-08-08T01:54:19.133Z,12.53
2022-08-08T01:56:37.129Z,12.63
2022-08-08T02:00:01.384Z,12.77
2022-08-08T02:02:42.525Z,12.23
2022-08-08T02:05:23.425Z,12.53
2022-08-08T02:08:25.611Z,12.20
2022-08-08T02:11:07.169Z,12.77
2022-08-08T02:13:55.678Z,12.53
2022-08-08T02:16:48.751Z,12.83
2022-08-08T02:19:57.072Z,12.63
2022-08-08T02:22:32.802Z,12.37
2022-08-08T02:25:20.946Z,12.83
2022-08-08T02:28:05.385Z,12.43
2022-08-08T02:30:49.881Z,12.63
2022-08-08T02:33:41.477Z,12.33
2022-08-08T02:36:51.886Z,12.67
2022-08-08T02:39:42.808Z,12.57
2022-08-08T02:42:38.323Z,12.80
2022-08-08T02:45:51.384Z,13.10
2022-08-08T02:48:37.500Z,12.60
2022-08-08T02:51:55.077Z,12.57
2022-08-08T02:54:34.961Z,12.00
2022-08-08T02:57:44.452Z,12.13
2022-08-08T03:00:31.862Z,12.67
2022-08-08T03:05:01.633Z,12.20
2022-08-08T03:07:07.188Z,12.50
2022-08-08T03:10:32.477Z,12.63
2022-08-08T03:15:53.334Z,12.53
2022-08-08T03:16:07.961Z,12.83
2022-08-08T03:18:37.324Z,12.57
2022-08-08T03:21:09.999Z,12.40
2022-08-08T03:24:00.084Z,13.00
2022-08-08T03:26:42.790Z,12.60
2022-08-08T03:29:26.937Z,12.87
2022-08-08T03:32:29.027Z,12.57
2022-08-08T03:34:57.471Z,12.40
2022-08-08T03:38:00.009Z,12.63
2022-08-08T03:40:29.768Z,12.93
2022-08-08T03:43:15.808Z,12.50
2022-08-08T03:46:04.826Z,12.63
2022-08-08T03:49:09.417Z,12.87
2022-08-08T03:51:26.472Z,12.80
2022-08-08T03:54:06.351Z,13.13
2022-08-08T03:56:34.960Z,13.13
2022-08-08T03:59:03.349Z,12.80
2022-08-08T04:02:12.524Z,12.80
2022-08-08T04:04:30.622Z,13.10
2022-08-08T04:07:01.351Z,13.17
2022-08-08T04:09:58.819Z,13.53
2022-08-08T04:12:22.632Z,13.17
2022-08-08T04:14:50.851Z,12.90
2022-08-08T04:17:46.440Z,13.10
2022-08-08T04:20:08.320Z,13.80
2022-08-08T04:22:36.449Z,12.90
2022-08-08T04:25:05.538Z,12.97
2022-08-08T04:28:02.692Z,13.10
2022-08-08T04:30:19.678Z,13.30
2022-08-08T04:32:50.859Z,12.90
2022-08-08T04:35:22.787Z,13.40
2022-08-08T04:37:51.383Z,12.73
2022-08-08T04:40:24.171Z,13.27
2022-08-08T04:42:56.700Z,13.10
2022-08-08T04:45:27.081Z,13.00
2022-08-08T04:47:57.915Z,12.80
2022-08-08T04:50:34.247Z,12.73
2022-08-08T04:53:53.077Z,13.17
2022-08-08T04:55:56.155Z,13.07
2022-08-08T04:58:25.511Z,13.30
2022-08-08T05:00:52.766Z,13.37
2022-08-08T05:04:10.767Z,13.10
2022-08-08T05:06:12.596Z,13.03
2022-08-08T05:08:43.880Z,13.40
2022-08-08T05:11:22.638Z,13.20
2022-08-08T05:13:58.252Z,13.00
2022-08-08T05:16:53.504Z,13.50
2022-08-08T05:20:09.787Z,13.13
2022-08-08T05:22:07.674Z,12.90
2022-08-08T05:24:37.195Z,13.07
2022-08-08T05:27:05.652Z,13.00
2022-08-08T05:29:36.856Z,13.83
2022-08-08T05:32:08.494Z,13.30
2022-08-08T05:34:46.907Z,13.27
2022-08-08T05:37:19.446Z,13.30
2022-08-08T05:40:04.893Z,13.40
2022-08-08T05:42:45.433Z,13.47
2022-08-08T05:45:25.279Z,12.67
2022-08-08T05:48:08.807Z,13.43
2022-08-08T05:50:36.522Z,13.50
2022-08-08T05:53:54.772Z,12.90
2022-08-08T05:56:10.198Z,13.20
2022-08-08T05:58:57.007Z,13.10
2022-08-08T06:01:56.052Z,12.63
2022-08-08T06:04:23.782Z,12.93
2022-08-08T06:07:03.289Z,13.30
2022-08-08T06:09:58.650Z,13.23
2022-08-08T06:12:30.958Z,13.23
2022-08-08T06:15:02.988Z,13.27
2022-08-08T06:17:51.104Z,13.07
2022-08-08T06:20:25.658Z,13.40
2022-08-08T06:22:56.355Z,13.40
2022-08-08T06:26:34.804Z,12.87
2022-08-08T06:28:31.272Z,13.90
2022-08-08T06:31:00.314Z,13.27
2022-08-08T06:34:27.733Z,13.47
2022-08-08T06:36:53.170Z,12.80
2022-08-08T06:39:23.858Z,13.53
2022-08-08T06:42:02.624Z,13.20
2022-08-08T06:44:48.582Z,13.20
2022-08-08T06:47:15.211Z,12.80
2022-08-08T06:49:55.126Z,12.87
2022-08-08T06:52:23.020Z,12.97
2022-08-08T06:54:57.969Z,13.10
2022-08-08T06:57:29.497Z,13.10
2022-08-08T07:00:12.550Z,13.07
2022-08-08T07:02:45.362Z,13.27
2022-08-08T07:05:24.567Z,12.90
2022-08-08T07:07:52.981Z,12.83
2022-08-08T07:10:25.263Z,12.57
2022-08-08T07:13:14.905Z,13.00
2022-08-08T07:16:06.115Z,12.47
2022-08-08T07:19:22.717Z,13.07
2022-08-08T07:22:04.984Z,12.80
2022-08-08T07:24:44.993Z,13.03
2022-08-08T07:27:16.822Z,13.10
2022-08-08T07:30:02.452Z,12.67
2022-08-08T07:32:37.928Z,12.60
2022-08-08T07:35:08.669Z,13.17
2022-08-08T07:37:56.038Z,13.60
2022-08-08T07:40:40.164Z,13.40
2022-08-08T07:43:11.690Z,13.70
2022-08-08T07:46:05.487Z,13.53
2022-08-08T07:48:31.920Z,14.00
2022-08-08T07:51:00.516Z,13.83
2022-08-08T07:54:01.841Z,14.17
2022-08-08T07:56:48.470Z,13.50
2022-08-08T07:59:16.436Z,13.67
2022-08-08T08:02:34.493Z,13.80
2022-08-08T08:04:49.005Z,13.70
2022-08-08T08:07:17.642Z,13.70
2022-08-08T08:09:44.160Z,14.00
2022-08-08T08:12:26.576Z,14.00
2022-08-08T08:15:04.329Z,13.80
2022-08-08T08:17:47.538Z,13.67
2022-08-08T08:20:20.985Z,13.30
2022-08-08T08:22:49.221Z,14.23
2022-08-08T08:25:16.897Z,13.80
2022-08-08T08:27:46.527Z,13.13
2022-08-08T08:30:13.935Z,13.70
2022-08-08T08:32:49.237Z,14.00
2022-08-08T08:35:21.659Z,13.43
2022-08-08T08:38:17.356Z,13.60
2022-08-08T08:40:51.163Z,14.07
2022-08-08T08:43:19.283Z,14.00
2022-08-08T08:45:49.404Z,14.40
2022-08-08T08:48:24.439Z,13.87
2022-08-08T08:50:54.213Z,14.30
2022-08-08T08:53:28.285Z,13.13
2022-08-08T08:56:14.380Z,13.20
2022-08-08T08:58:50.349Z,14.00
2022-08-08T09:01:27.266Z,13.30
2022-08-08T09:04:00.254Z,13.67
2022-08-08T09:06:38.354Z,13.40
2022-08-08T09:09:35.282Z,13.30
2022-08-08T09:12:17.063Z,12.87
2022-08-08T09:14:51.565Z,13.27
2022-08-08T09:17:40.845Z,14.37
2022-08-08T09:21:57.187Z,14.00
2022-08-08T09:23:02.536Z,14.10
2022-08-08T09:25:36.189Z,14.00
2022-08-08T09:28:31.574Z,14.30
2022-08-08T09:31:13.286Z,13.10
2022-08-08T09:34:15.851Z,13.00
2022-08-08T09:36:36.356Z,14.40
2022-08-08T09:39:15.653Z,14.60
2022-08-08T09:42:21.233Z,14.37
2022-08-08T09:44:45.671Z,13.87
2022-08-08T09:48:02.338Z,12.73
2022-08-08T09:50:13.879Z,14.10
2022-08-08T09:52:55.506Z,14.33
2022-08-08T09:55:51.387Z,15.03
2022-08-08T09:58:25.653Z,14.60
2022-08-08T10:00:58.293Z,12.90
2022-08-08T10:03:27.813Z,13.93
2022-08-08T10:05:57.843Z,13.37
2022-08-08T10:08:24.000Z,13.80
2022-08-08T10:10:57.978Z,13.50
2022-08-08T10:13:35.608Z,13.80
2022-08-08T10:16:03.687Z,13.87
2022-08-08T10:18:35.022Z,14.20
2022-08-08T10:21:22.574Z,13.93
2022-08-08T10:23:58.829Z,13.90
2022-08-08T10:26:40.595Z,14.07
2022-08-08T10:29:20.832Z,14.47
2022-08-08T10:32:15.937Z,14.03
2022-08-08T10:34:51.270Z,13.33
2022-08-08T10:37:34.490Z,13.83
2022-08-08T10:40:16.226Z,13.53
2022-08-08T10:42:44.880Z,14.17
2022-08-08T10:45:16.164Z,14.23
2022-08-08T10:47:53.614Z,13.90
2022-08-08T10:50:34.521Z,14.60
2022-08-08T10:53:12.682Z,14.97
2022-08-08T10:55:46.720Z,14.70
2022-08-08T10:58:13.687Z,15.93
2022-08-08T11:00:48.597Z,13.13
2022-08-08T11:03:52.362Z,15.53
2022-08-08T11:06:06.805Z,15.73
2022-08-08T11:08:43.850Z,14.30
2022-08-08T11:11:32.754Z,14.03
2022-08-08T11:14:02.919Z,13.60
2022-08-08T11:16:34.388Z,14.10
2022-08-08T11:19:03.109Z,14.17
2022-08-08T11:21:35.107Z,14.07
2022-08-08T11:24:05.727Z,14.13
2022-08-08T11:26:38.258Z,14.50
2022-08-08T11:29:21.404Z,14.57
2022-08-08T11:31:51.136Z,14.43
2022-08-08T11:34:25.694Z,14.63
2022-08-08T11:37:00.173Z,14.57
2022-08-08T11:39:37.117Z,14.43
2022-08-08T11:42:08.908Z,14.23
2022-08-08T11:44:37.210Z,14.20
2022-08-08T11:47:03.602Z,14.70
2022-08-08T11:49:40.372Z,14.43
2022-08-08T11:52:08.016Z,14.07
2022-08-08T11:54:46.710Z,14.23
2022-08-08T11:57:23.982Z,14.37
2022-08-08T12:00:02.743Z,14.20
2022-08-08T12:02:56.503Z,14.03
2022-08-08T12:05:37.949Z,14.13
2022-08-08T12:08:05.120Z,14.30
2022-08-08T12:10:31.632Z,14.43
2022-08-08T12:13:11.425Z,15.70
2022-08-08T12:15:47.661Z,15.10
2022-08-08T12:18:24.467Z,14.57
2022-08-08T12:20:58.957Z,14.83
2022-08-08T12:23:40.783Z,15.07
2022-08-08T12:26:27.332Z,15.00
2022-08-08T12:29:02.058Z,15.70
2022-08-08T12:31:38.697Z,14.57
2022-08-08T12:34:05.449Z,15.60
2022-08-08T12:36:40.290Z,15.70
2022-08-08T12:39:13.064Z,15.50
2022-08-08T12:41:57.108Z,16.47
2022-08-08T12:44:32.108Z,16.17
2022-08-08T12:47:01.189Z,16.57
2022-08-08T12:49:43.066Z,16.13
2022-08-08T12:52:28.286Z,15.13
2022-08-08T12:55:21.702Z,15.40
2022-08-08T12:58:15.723Z,15.67
2022-08-08T13:00:42.284Z,15.70
2022-08-08T13:03:10.697Z,16.23
2022-08-08T13:06:03.058Z,15.90
2022-08-08T13:08:56.791Z,15.60
2022-08-08T13:12:19.521Z,15.13
2022-08-08T13:14:19.916Z,16.17
2022-08-08T13:16:49.218Z,15.80
2022-08-08T13:19:17.811Z,15.30
2022-08-08T13:21:53.429Z,15.70
2022-08-08T13:24:40.957Z,15.53
2022-08-08T13:27:19.512Z,15.47
2022-08-08T13:29:53.064Z,16.50
2022-08-08T13:32:25.279Z,16.13
2022-08-08T13:34:56.796Z,16.00
2022-08-08T13:38:05.084Z,16.33
2022-08-08T13:40:17.906Z,16.77
2022-08-08T13:42:53.785Z,15.77
2022-08-08T13:45:24.323Z,15.03
2022-08-08T13:47:58.829Z,15.33
2022-08-08T13:50:36.057Z,15.50
2022-08-08T13:53:24.366Z,15.20
2022-08-08T13:56:01.655Z,15.37
2022-08-08T13:58:29.626Z,16.00
2022-08-08T14:00:56.177Z,15.83
2022-08-08T14:03:52.433Z,15.80
2022-08-08T14:06:32.083Z,15.60
2022-08-08T14:08:59.466Z,15.60
2022-08-08T14:11:27.969Z,15.37
2022-08-08T14:13:59.750Z,15.20
2022-08-08T14:16:28.034Z,15.53
2022-08-08T14:18:57.263Z,15.33
2022-08-08T14:21:39.638Z,15.17
2022-08-08T14:24:08.827Z,14.87
2022-08-08T14:26:41.036Z,16.00
2022-08-08T14:29:11.586Z,14.93
2022-08-08T14:32:09.443Z,15.27
2022-08-08T14:34:42.391Z,15.50
2022-08-08T14:37:09.758Z,15.63
2022-08-08T14:39:49.960Z,15.63
2022-08-08T14:42:33.542Z,14.90
2022-08-08T14:45:04.273Z,14.27
2022-08-08T14:47:36.455Z,14.57
2022-08-08T14:50:16.086Z,15.20
2022-08-08T14:53:03.133Z,14.80
2022-08-08T14:55:41.289Z,15.03
2022-08-08T14:58:11.746Z,15.23
2022-08-08T15:00:42.699Z,15.03
2022-08-08T15:03:15.706Z,14.27
2022-08-08T15:05:53.232Z,14.90
2022-08-08T15:08:34.806Z,14.87
2022-08-08T15:11:06.868Z,15.30
2022-08-08T15:13:35.149Z,14.53
2022-08-08T15:16:11.698Z,14.90
2022-08-08T15:18:49.994Z,14.80
2022-08-08T15:21:19.136Z,14.50
2022-08-08T15:23:51.574Z,14.97
2022-08-08T15:26:21.244Z,14.80
2022-08-08T15:28:54.037Z,14.77
2022-08-08T15:31:25.809Z,14.77
2022-08-08T15:34:08.563Z,14.30
2022-08-08T15:36:46.863Z,14.80
2022-08-08T15:39:13.771Z,14.50
2022-08-08T15:41:45.761Z,14.10
2022-08-08T15:44:14.163Z,14.20
2022-08-08T15:46:45.431Z,14.50
2022-08-08T15:49:17.292Z,14.33
2022-08-08T15:51:51.325Z,14.47
2022-08-08T15:54:38.254Z,14.23
2022-08-08T15:57:07.793Z,13.93
2022-08-08T16:00:05.689Z,14.50
2022-08-08T16:02:30.722Z,14.30
2022-08-08T16:04:58.558Z,14.67
2022-08-08T16:07:25.890Z,13.43
2022-08-08T16:13:04.326Z,13.90
2022-08-08T16:13:09.721Z,13.60
2022-08-08T16:15:57.545Z,13.90
2022-08-08T16:18:35.215Z,13.03
2022-08-08T16:21:02.436Z,13.83
2022-08-08T16:23:31.826Z,13.70
2022-08-08T16:26:04.785Z,13.37
2022-08-08T16:28:41.538Z,13.33
2022-08-08T16:31:09.246Z,13.80
2022-08-08T16:33:38.773Z,13.80
2022-08-08T16:36:12.941Z,13.33
2022-08-08T16:38:47.170Z,13.60
2022-08-08T16:41:20.456Z,13.07
2022-08-08T16:43:51.055Z,12.70
2022-08-08T16:46:38.760Z,12.73
2022-08-08T16:49:08.987Z,14.70
2022-08-08T16:55:06.470Z,13.43
2022-08-08T16:55:13.928Z,13.43
2022-08-08T16:57:23.547Z,13.13
2022-08-08T17:00:08.476Z,13.80
2022-08-08T17:02:39.498Z,13.80
2022-08-08T17:05:08.264Z,13.60
2022-08-08T17:07:37.711Z,13.87
2022-08-08T17:10:08.852Z,13.10
2022-08-08T17:12:36.843Z,13.90
2022-08-08T17:15:17.887Z,13.70
2022-08-08T17:18:02.398Z,12.93
2022-08-08T17:20:32.076Z,13.17
2022-08-08T17:23:16.340Z,13.17
2022-08-08T17:25:52.359Z,13.43
2022-08-08T17:28:19.132Z,12.60
2022-08-08T17:31:02.040Z,12.70
2022-08-08T17:34:37.262Z,12.47
2022-08-08T17:36:31.343Z,12.87
2022-08-08T17:39:05.282Z,12.33
2022-08-08T17:41:48.437Z,12.80
2022-08-08T17:44:15.125Z,12.33
2022-08-08T17:46:44.627Z,12.33
2022-08-08T17:49:13.324Z,12.23
2022-08-08T17:51:43.769Z,12.23
2022-08-08T17:54:21.973Z,12.73
2022-08-08T17:56:49.102Z,12.90
2022-08-08T17:59:23.436Z,12.70
2022-08-08T18:02:03.224Z,12.43
2022-08-08T18:04:32.722Z,12.80
2022-08-08T18:07:01.171Z,12.90
2022-08-08T18:09:31.515Z,12.93
2022-08-08T18:12:08.011Z,13.50
2022-08-08T18:14:37.658Z,12.73
2022-08-08T18:17:04.128Z,13.63
2022-08-08T18:19:45.650Z,13.50
2022-08-08T18:22:50.381Z,13.87
2022-08-08T18:24:59.287Z,13.77
2022-08-08T18:27:26.147Z,13.87
2022-08-08T18:29:57.473Z,12.80
2022-08-08T18:32:23.627Z,12.70
2022-08-08T18:34:49.915Z,13.10
2022-08-08T18:37:17.706Z,13.73
2022-08-08T18:40:01.033Z,14.23
2022-08-08T18:42:27.247Z,12.93
2022-08-08T18:44:57.228Z,12.90
2022-08-08T18:47:25.830Z,13.57
2022-08-08T18:49:58.638Z,13.10
2022-08-08T18:52:27.716Z,12.70
2022-08-08T18:55:00.510Z,12.80
2022-08-08T18:57:40.821Z,12.90
2022-08-08T19:00:15.447Z,12.67
2022-08-08T19:02:48.363Z,12.90
2022-08-08T19:05:24.018Z,12.93
2022-08-08T19:07:57.369Z,11.80
2022-08-08T19:10:23.877Z,13.07
2022-08-08T19:12:53.550Z,12.70
2022-08-08T19:15:23.791Z,13.30
2022-08-08T19:18:32.632Z,13.20
2022-08-08T19:20:47.169Z,13.60
2022-08-08T19:23:13.292Z,13.90
2022-08-08T19:26:19.898Z,12.90
2022-08-08T19:28:26.087Z,13.00
2022-08-08T19:31:04.038Z,13.30
2022-08-08T19:33:51.819Z,12.43
2022-08-08T19:36:27.593Z,12.70
2022-08-08T19:38:55.915Z,12.93
2022-08-08T19:41:30.185Z,12.93
2022-08-08T19:44:02.991Z,12.77
2022-08-08T19:46:33.738Z,12.23
2022-08-08T19:49:01.045Z,12.53
2022-08-08T19:51:34.776Z,12.10
2022-08-08T19:54:07.825Z,12.50
2022-08-08T19:56:40.140Z,13.67
2022-08-08T19:59:12.524Z,13.00
2022-08-08T20:02:01.399Z,12.73
2022-08-08T20:04:26.618Z,13.10
2022-08-08T20:06:53.240Z,13.50
2022-08-08T20:09:22.439Z,13.10
2022-08-08T20:11:50.214Z,12.97
2022-08-08T20:14:33.474Z,13.23
2022-08-08T20:17:01.461Z,12.77
2022-08-08T20:19:34.712Z,12.80
2022-08-08T20:22:13.151Z,12.80
2022-08-08T20:24:52.589Z,12.33
2022-08-08T20:27:21.074Z,13.00
2022-08-08T20:29:55.738Z,12.67
2022-08-08T20:32:28.921Z,12.63
2022-08-08T20:35:01.348Z,13.07
2022-08-08T20:37:46.879Z,12.77
2022-08-08T20:40:16.727Z,12.37
2022-08-08T20:42:50.562Z,13.07
2022-08-08T20:45:34.298Z,13.60
2022-08-08T20:48:08.849Z,12.70
2022-08-08T20:50:35.223Z,13.70
2022-08-08T20:53:01.830Z,13.67
2022-08-08T20:55:28.811Z,14.20
2022-08-08T20:58:02.782Z,14.00
2022-08-08T21:00:29.014Z,13.13
2022-08-08T21:02:56.632Z,13.43
2022-08-08T21:05:23.195Z,12.87
2022-08-08T21:08:36.780Z,13.67
2022-08-08T21:10:37.790Z,13.60
2022-08-08T21:13:06.841Z,13.37
2022-08-08T21:16:05.586Z,13.80
2022-08-08T21:18:21.933Z,13.47
2022-08-08T21:20:54.017Z,13.17
2022-08-08T21:23:20.236Z,13.50
2022-08-08T21:26:06.917Z,13.77
2022-08-08T21:28:35.918Z,13.70
2022-08-08T21:31:21.730Z,13.30
2022-08-08T21:33:48.780Z,12.87
2022-08-08T21:36:28.603Z,13.07
2022-08-08T21:38:56.358Z,13.33
2022-08-08T21:41:38.619Z,13.20
2022-08-08T21:44:09.322Z,13.33
2022-08-08T21:48:06.844Z,13.07
2022-08-08T21:49:22.873Z,12.60
2022-08-08T21:54:18.163Z,12.80
2022-08-08T21:54:53.819Z,13.23
2022-08-08T21:57:23.812Z,12.87
2022-08-08T22:00:02.379Z,13.00
2022-08-08T22:02:39.605Z,12.80
2022-08-08T22:05:09.029Z,13.07
2022-08-08T22:07:40.867Z,13.00
2022-08-08T22:10:18.149Z,13.17
2022-08-08T22:13:16.736Z,12.60
2022-08-08T22:15:42.814Z,12.60
2022-08-08T22:18:26.309Z,12.87
2022-08-08T22:20:54.157Z,12.70
2022-08-08T22:23:20.353Z,12.37
2022-08-08T22:26:27.955Z,12.00
2022-08-08T22:29:05.171Z,12.60
2022-08-08T22:31:19.219Z,12.80
2022-08-08T22:34:13.841Z,12.77
2022-08-08T22:36:32.361Z,12.13
2022-08-08T22:39:00.653Z,12.50
2022-08-08T22:41:32.957Z,12.37
2022-08-08T22:44:02.249Z,12.53
2022-08-08T22:46:33.779Z,12.40
2022-08-08T22:49:00.490Z,12.70
2022-08-08T22:51:29.110Z,13.30
2022-08-08T22:54:32.027Z,13.40
2022-08-08T22:56:42.013Z,13.13
2022-08-08T22:59:13.623Z,12.97
2022-08-08T23:02:01.858Z,13.03
2022-08-08T23:04:32.418Z,12.80
2022-08-08T23:07:02.694Z,13.37
2022-08-08T23:09:30.663Z,13.43
2022-08-08T23:12:28.232Z,13.20
2022-08-08T23:14:56.036Z,12.47
2022-08-08T23:17:30.026Z,13.00
2022-08-08T23:19:56.510Z,13.00
2022-08-08T23:22:22.673Z,12.57
2022-08-08T23:24:49.400Z,13.20
2022-08-08T23:27:37.554Z,12.40
2022-08-08T23:30:04.674Z,12.67
2022-08-08T23:32:31.414Z,12.90
2022-08-08T23:34:59.612Z,12.63
2022-08-08T23:37:26.694Z,13.30
2022-08-08T23:40:13.319Z,12.70
2022-08-08T23:42:39.614Z,12.87
2022-08-08T23:45:12.580Z,12.90
2022-08-08T23:49:00.795Z,13.20
2022-08-08T23:50:30.812Z,12.67
2022-08-08T23:52:58.539Z,12.90
2022-08-08T23:55:32.014Z,13.17
2022-08-08T23:57:58.284Z,13.07
